Terminal Aerodrome Forecast
Issued by NWS

Home | Current Version | Previous Version | Text Only | Print | Product List | Glossary On
Versions: 1 2 3 4 5 6 7 8 9 10 11
785
FTUS43 KEAX 212324
TAFSTJ
TAF
KSTJ 212324Z 2200/2224 05012KT P6SM OVC100
     FM220600 03011KT P6SM VCSH BKN080
     FM221200 02013G23KT P6SM BKN200=

USA.gov is the U.S. government's official web portal to all federal, state and local government web resources and services.